Mr. Mag — WDE7813 — position and weather

sailwx.info

Track history (hours):
 
Tides and Currents Weather Stations Pressure Air Temp Water Temp Dewpoint Dewpoint Depression Visibility Wind Speed Wind Dir Waves Ship Positions

Mr. Mag

Owner: Tandi Marine, Inc., Larose, LA. More information available from US FCC via Universal Licensing System and Coast Guard Vessel Documentation Center.

Last reported at 2016-May-06 12:28 UTC. Time now 2016-May-06 13:06 UTC.
Position N 29°49' W 093°20'.

Length 46 m; draft 2.5 m.

Type: Passenger vessel. MMSI: 367397990.

Date/timePositionNaut miles runAvg speedWind from/ knotsBaromVisibWave heightAir tempDewpointWater temp
2016-May-06 12:28N 29°49' W 093°20'4 4.7
2016-May-06 11:33N 29°45' W 093°21'1715.7
2016-May-06 10:30N 29°29' W 093°22'6 0.3
2016-May-05 11:05N 29°22' W 093°23'816.2
2016-May-05 10:33N 29°30' W 093°22'1615.6
2016-May-05 09:34N 29°46' W 093°21'3 3.2
2016-May-05 08:33N 29°49' W 093°20'0 0.0
2016-May-05 07:34N 29°49' W 093°20'0 0.0
2016-May-05 06:33N 29°49' W 093°20'0 0.0
2016-May-05 05:34N 29°49' W 093°20'1 0.6
2016-May-05 04:33N 29°49' W 093°21'1110.8
2016-May-05 03:33N 29°38' W 093°19'8 0.3
2016-May-04 05:33N 29°46' W 093°21'4 3.6
2016-May-04 04:33N 29°49' W 093°20'0 0.1
2016-May-04 03:34N 29°49' W 093°20'0 0.0
2016-May-04 02:33N 29°49' W 093°20'0 0.0
2016-May-04 01:28N 29°49' W 093°20'0 0.0
2016-May-04 00:31N 29°49' W 093°20'0 0.0
2016-May-03 23:31N 29°49' W 093°20'1 0.5
2016-May-03 20:34N 29°48' W 093°21'1 1.3
2016-May-03 19:33N 29°49' W 093°20'5 4.6
2016-May-03 18:34N 29°45' W 093°20'5 0.4
2016-May-03 06:28N 29°40' W 093°20'1010.7
2016-May-03 05:33N 29°49' W 093°20'0 0.0
2016-May-03 04:33N 29°49' W 093°20'0 0.0
2016-May-03 03:33N 29°49' W 093°20'3 2.7
2016-May-03 02:33N 29°47' W 093°21'3 2.7
2016-May-03 01:33N 29°49' W 093°20'0 0.0
2016-May-03 00:33N 29°49' W 093°20'1 0.6
2016-May-02 23:33N 29°49' W 093°21'0 0.0
2016-May-02 22:33N 29°49' W 093°21'2 2.4
2016-May-02 21:33N 29°46' W 093°21'0 0.0
2016-May-02 20:31N 29°46' W 093°21'3 3.0
2016-May-02 19:33N 29°49' W 093°20'2 2.3
2016-May-02 18:33N 29°47' W 093°21'8 0.7
2016-May-02 06:09N 29°39' W 093°20'610.3
2016-May-02 05:34N 29°45' W 093°21'4 4.4
2016-May-02 04:33N 29°49' W 093°20'0 0.0
2016-May-02 03:33N 29°49' W 093°20'0 0.1
2016-May-02 02:34N 29°49' W 093°20'0 0.0
2016-May-02 01:33N 29°49' W 093°20'0 0.1
2016-May-02 00:34N 29°49' W 093°20'3 3.3
2016-May-01 23:33N 29°46' W 093°21'8 0.4
2016-May-01 04:22N 29°38' W 093°21'1012.8
2016-May-01 03:33N 29°48' W 093°21'1 1.2
2016-May-01 02:33N 29°49' W 093°20'0 0.0
2016-May-01 01:33N 29°49' W 093°20'3 0.3
2016-Apr-30 13:33N 29°46' W 093°21'0 0.0
2016-Apr-30 12:33N 29°46' W 093°21'0 0.0
2016-Apr-30 11:33N 29°46' W 093°21'0 0.0
2016-Apr-30 10:33N 29°46' W 093°21'0 0.0
2016-Apr-30 09:33N 29°46' W 093°21'0 0.0
2016-Apr-30 08:33N 29°46' W 093°21'0 0.0
2016-Apr-30 07:33N 29°46' W 093°21'0 0.0
2016-Apr-30 06:33N 29°46' W 093°21'0 0.0
2016-Apr-30 05:32N 29°46' W 093°21'0 0.0
2016-Apr-30 04:32N 29°46' W 093°21'0 0.0
2016-Apr-30 03:33N 29°46' W 093°21'0 0.0
2016-Apr-30 02:33N 29°46' W 093°21'0 0.0
2016-Apr-30 01:30N 29°46' W 093°21'0 0.5
2016-Apr-30 00:33N 29°47' W 093°21'3 2.4
2016-Apr-29 23:30N 29°49' W 093°20'1 0.6
2016-Apr-29 22:28N 29°49' W 093°21'38 3.2
2016-Apr-29 10:32N 29°11' W 093°26'3216.2
2016-Apr-29 08:32N 29°43' W 093°20'6 6.5
2016-Apr-29 07:32N 29°49' W 093°20'0 0.0
2016-Apr-29 06:33N 29°49' W 093°20'3 1.0
2016-Apr-29 03:33N 29°46' W 093°21'2 0.1
2016-Apr-28 00:33N 29°44' W 093°20'5 5.3
2016-Apr-27 23:33N 29°49' W 093°20'0 0.1
2016-Apr-27 22:33N 29°49' W 093°20'0 0.0
2016-Apr-27 21:33N 29°49' W 093°20'3 3.1
2016-Apr-27 20:33N 29°46' W 093°21'6 0.4
2016-Apr-27 05:33N 29°41' W 093°21'9 8.7
2016-Apr-27 04:33N 29°49' W 093°20'0 0.1
2016-Apr-27 03:33N 29°49' W 093°20'0 0.0
2016-Apr-27 02:33N 29°49' W 093°20'0 0.1
2016-Apr-27 01:33N 29°49' W 093°20'0 0.1
2016-Apr-27 00:33N 29°49' W 093°20'0 0.0
2016-Apr-26 23:33N 29°49' W 093°20'0 0.0
2016-Apr-26 22:33N 29°49' W 093°20'0 0.0
2016-Apr-26 21:34N 29°49' W 093°20'0 0.0
2016-Apr-26 20:33N 29°49' W 093°20'0 0.0
2016-Apr-26 19:33N 29°49' W 093°20'  
Track history (hours):
 
Tides and Currents Weather Stations Pressure Air Temp Water Temp Dewpoint Dewpoint Depression Visibility Wind Speed Wind Dir Waves Ship Positions

Mr. Mag

Owner: Tandi Marine, Inc., Larose, LA. More information available from US FCC via Universal Licensing System and Coast Guard Vessel Documentation Center.

Last reported at 2016-May-06 12:28 UTC. Time now 2016-May-06 13:06 UTC.
Position N 29°49' W 093°20'.

Length 46 m; draft 2.5 m.

Type: Passenger vessel. MMSI: 367397990.

Date/timePositionNaut miles runAvg speedWind from/ knotsBaromVisibWave heightAir tempDewpointWater temp
2016-May-06 12:28N 29°49' W 093°20'4 4.7
2016-May-06 11:33N 29°45' W 093°21'1715.7
2016-May-06 10:30N 29°29' W 093°22'6 0.3
2016-May-05 11:05N 29°22' W 093°23'816.2
2016-May-05 10:33N 29°30' W 093°22'1615.6
2016-May-05 09:34N 29°46' W 093°21'3 3.2
2016-May-05 08:33N 29°49' W 093°20'0 0.0
2016-May-05 07:34N 29°49' W 093°20'0 0.0
2016-May-05 06:33N 29°49' W 093°20'0 0.0
2016-May-05 05:34N 29°49' W 093°20'1 0.6
2016-May-05 04:33N 29°49' W 093°21'1110.8
2016-May-05 03:33N 29°38' W 093°19'8 0.3
2016-May-04 05:33N 29°46' W 093°21'4 3.6
2016-May-04 04:33N 29°49' W 093°20'0 0.1
2016-May-04 03:34N 29°49' W 093°20'0 0.0
2016-May-04 02:33N 29°49' W 093°20'0 0.0
2016-May-04 01:28N 29°49' W 093°20'0 0.0
2016-May-04 00:31N 29°49' W 093°20'0 0.0
2016-May-03 23:31N 29°49' W 093°20'1 0.5
2016-May-03 20:34N 29°48' W 093°21'1 1.3
2016-May-03 19:33N 29°49' W 093°20'5 4.6
2016-May-03 18:34N 29°45' W 093°20'5 0.4
2016-May-03 06:28N 29°40' W 093°20'1010.7
2016-May-03 05:33N 29°49' W 093°20'0 0.0
2016-May-03 04:33N 29°49' W 093°20'0 0.0
2016-May-03 03:33N 29°49' W 093°20'3 2.7
2016-May-03 02:33N 29°47' W 093°21'3 2.7
2016-May-03 01:33N 29°49' W 093°20'0 0.0
2016-May-03 00:33N 29°49' W 093°20'1 0.6
2016-May-02 23:33N 29°49' W 093°21'0 0.0
2016-May-02 22:33N 29°49' W 093°21'2 2.4
2016-May-02 21:33N 29°46' W 093°21'0 0.0
2016-May-02 20:31N 29°46' W 093°21'3 3.0
2016-May-02 19:33N 29°49' W 093°20'2 2.3
2016-May-02 18:33N 29°47' W 093°21'8 0.7
2016-May-02 06:09N 29°39' W 093°20'610.3
2016-May-02 05:34N 29°45' W 093°21'4 4.4
2016-May-02 04:33N 29°49' W 093°20'0 0.0
2016-May-02 03:33N 29°49' W 093°20'0 0.1
2016-May-02 02:34N 29°49' W 093°20'0 0.0
2016-May-02 01:33N 29°49' W 093°20'0 0.1
2016-May-02 00:34N 29°49' W 093°20'3 3.3
2016-May-01 23:33N 29°46' W 093°21'8 0.4
2016-May-01 04:22N 29°38' W 093°21'1012.8
2016-May-01 03:33N 29°48' W 093°21'1 1.2
2016-May-01 02:33N 29°49' W 093°20'0 0.0
2016-May-01 01:33N 29°49' W 093°20'3 0.3
2016-Apr-30 13:33N 29°46' W 093°21'0 0.0
2016-Apr-30 12:33N 29°46' W 093°21'0 0.0
2016-Apr-30 11:33N 29°46' W 093°21'0 0.0
2016-Apr-30 10:33N 29°46' W 093°21'0 0.0
2016-Apr-30 09:33N 29°46' W 093°21'0 0.0
2016-Apr-30 08:33N 29°46' W 093°21'0 0.0
2016-Apr-30 07:33N 29°46' W 093°21'0 0.0
2016-Apr-30 06:33N 29°46' W 093°21'0 0.0
2016-Apr-30 05:32N 29°46' W 093°21'0 0.0
2016-Apr-30 04:32N 29°46' W 093°21'0 0.0
2016-Apr-30 03:33N 29°46' W 093°21'0 0.0
2016-Apr-30 02:33N 29°46' W 093°21'0 0.0
2016-Apr-30 01:30N 29°46' W 093°21'0 0.5
2016-Apr-30 00:33N 29°47' W 093°21'3 2.4
2016-Apr-29 23:30N 29°49' W 093°20'1 0.6
2016-Apr-29 22:28N 29°49' W 093°21'38 3.2
2016-Apr-29 10:32N 29°11' W 093°26'3216.2
2016-Apr-29 08:32N 29°43' W 093°20'6 6.5
2016-Apr-29 07:32N 29°49' W 093°20'0 0.0
2016-Apr-29 06:33N 29°49' W 093°20'3 1.0
2016-Apr-29 03:33N 29°46' W 093°21'2 0.1
2016-Apr-28 00:33N 29°44' W 093°20'5 5.3
2016-Apr-27 23:33N 29°49' W 093°20'0 0.1
2016-Apr-27 22:33N 29°49' W 093°20'0 0.0
2016-Apr-27 21:33N 29°49' W 093°20'3 3.1
2016-Apr-27 20:33N 29°46' W 093°21'6 0.4
2016-Apr-27 05:33N 29°41' W 093°21'9 8.7
2016-Apr-27 04:33N 29°49' W 093°20'0 0.1
2016-Apr-27 03:33N 29°49' W 093°20'0 0.0
2016-Apr-27 02:33N 29°49' W 093°20'0 0.1
2016-Apr-27 01:33N 29°49' W 093°20'0 0.1
2016-Apr-27 00:33N 29°49' W 093°20'0 0.0
2016-Apr-26 23:33N 29°49' W 093°20'0 0.0
2016-Apr-26 22:33N 29°49' W 093°20'0 0.0
2016-Apr-26 21:34N 29°49' W 093°20'0 0.0
2016-Apr-26 20:33N 29°49' W 093°20'0 0.0
2016-Apr-26 19:33N 29°49' W 093°20'  

Dump ship's entire track history